Portada
METAR-TAF:

METAR-TAF

Aeroports :

Emerald, Austràlia

latitud: 23-34-03S, longitud: 148-10-45E, altitud: 190 m

Observació

L'informe es va fer fa 1 hora i 10 minuts, a les 23:00 UTC
Vent 2 kt del Nord-Oest
Temperatura 25°C
Humitat 79%
Pressió 1010 hPa
Visibilitat 10 km o més
Cel ennuvolat a una alçada de 2300 ft
Cel ennuvolat a una alçada de 6800 ft
Cel cobert a una alçada de 11500 ft

METAR: YEML 122300Z AUTO 31002KT 9999 // BKN023 BKN068 OVC115 25/21 Q1010

Hora: 10:10 (00:10 UTC)


TAF: manca

Observacions i pronòstics meteorològics de més de 4000 aeroports (METAR i TAF).

Les estacions disponibles són els punts grocs i vermells al mapa.

Posi el ratolí al punt desitjat per veure el nom de l'estació.

Feu clic per veure les observacions i els pronòstics meteorològics.

Per canviar el mapa: feu clic els botons verds amb una creu de color negre per apropar; al botó verd amb un guió per allunyar la imatge; o en les fletxes verdes per a mapes adjacents.


METAR-TAF: